Alvo, Nebraska
Current Conditions -  °F | °C
As of 4:54 PM on Thursday 27 Nov 2014 (Local Time) from KLNK Reporting Station
Clear Clear  
Wind Chill: 21°   Ceiling: Unl
Heat Index: 31°   Visibility: 9mi
Dew Point: 16°   Wind: 13mph
Humidity: 54%   Direction: 140°SE
Pressure: 30.28"   Gusts: NA
Location:  40.87°N, 96.39°W
Report Text: KLNK 272254Z 14011KT 9SM CLR M01/M09 A3028 RMK AO2 SLP273 T10061089
Loading
Personal Weather Stations






























Interactive Weather Map New forecast layout! Learn more

10-Day Weather Forecast

Advertisements
Track Severe Weather on mobile